ADDS METAR Data INFO
IDs: Format: Raw Decoded Include TAF

Data at: 0733 UTC 18 Oct 2017

KGVL 180653Z AUTO 04004KT 10SM CLR 09/07 A3032 RMK AO2 SLP262 T00890067
KGVL 180553Z AUTO 04004KT 10SM CLR 09/07 A3032 RMK AO2 SLP263 T00940067 10144 20089 58002
KGVL 180453Z AUTO 03004KT 10SM CLR 09/07 A3032 RMK AO2 SLP264 T00940072 401890078
KGVL 180353Z AUTO 00000KT 10SM CLR 10/07 A3033 RMK AO2 SLP265 T01000067
KGVL 180253Z AUTO 00000KT 10SM CLR 12/07 A3033 RMK AO2 SLP264 T01170067 53013
KGVL 180153Z AUTO 10003KT 10SM CLR 13/06 A3030 RMK AO2 SLP256 T01330061
KGVL 180053Z AUTO 10004KT 10SM CLR 13/06 A3028 RMK AO2 SLP250 T01330056
KGVL 172353Z AUTO 10003KT 10SM CLR 14/06 A3028 RMK AO2 SLP251 T01440061 10189 20139 53002
KGVL 172253Z AUTO 10004KT 10SM CLR 16/06 A3027 RMK AO2 SLP247 T01560056
KGVL 172153Z AUTO 11004KT 10SM CLR 18/04 A3028 RMK AO2 SLP248 T01830039
KGVL 172053Z AUTO 08006KT 10SM CLR 18/04 A3028 RMK AO2 SLP248 T01830044 56018
KGVL 171953Z AUTO VRB05KT 10SM CLR 18/04 A3028 RMK AO2 SLP248 T01830039
KGVL 171853Z AUTO VRB05KT 10SM CLR 18/04 A3030 RMK AO2 SLP256 T01830039
KGVL 171753Z AUTO 07007KT 10SM CLR 17/04 A3033 RMK AO2 SLP266 T01720044 10178 20089 58013
KGVL 171653Z AUTO 08004KT 10SM CLR 17/04 A3036 RMK AO2 SLP273 T01670044
KGVL 171553Z AUTO 06009KT 10SM CLR 16/04 A3037 RMK AO2 SLP279 T01560039
KGVL 171453Z AUTO 10012G17KT 10SM CLR 14/03 A3037 RMK AO2 SLP280 T01440033 51014
KGVL 171353Z AUTO 08012G19KT 10SM CLR 13/04 A3037 RMK AO2 SLP279 T01280039
KGVL 171253Z AUTO VRB06KT 5SM HZ CLR 11/03 A3035 RMK AO2 SLP274 T01060033
KGVL 171153Z AUTO 05005KT 10SM CLR 09/03 A3033 RMK AO2 SLP267 T00890033 10106 20078 53017
KGVL 171053Z AUTO 04007KT 10SM CLR 08/04 A3031 RMK AO2 SLP258 T00830039
KGVL 170953Z AUTO 03007KT 10SM CLR 08/05 A3029 RMK AO2 SLP252 T00780050
KGVL 170853Z AUTO 04005KT 10SM CLR 08/06 A3028 RMK AO2 SLP246 T00780056 53004
KGVL 170753Z AUTO 05004KT 10SM CLR 09/05 A3027 RMK AO2 SLP242 T00890050
KGVL 170653Z AUTO 07004KT 10SM CLR 10/06 A3027 RMK AO2 SLP244 T01000061
KGVL 170553Z AUTO 06005KT 10SM CLR 11/06 A3027 RMK AO2 SLP242 T01060061 10156 20106 51007
KGVL 170453Z AUTO 06006KT 10SM CLR 11/06 A3026 RMK AO2 SLP241 T01110061 402220111
KGVL 170353Z AUTO 06007KT 10SM CLR 12/06 A3025 RMK AO2 SLP238 T01220061
KGVL 170253Z AUTO 06004KT 10SM FEW042 12/07 A3025 RMK AO2 SLP236 T01220072 51030
KGVL 170153Z AUTO 05004KT 10SM FEW041 13/07 A3023 RMK AO2 SLP231 T01330067
KGVL 170053Z AUTO 36006KT 10SM FEW040 14/06 A3020 RMK AO2 SLP219 T01440061
KGVL 162353Z AUTO 34007KT 10SM CLR 16/06 A3015 RMK AO2 SLP203 T01560061 10222 20156 53019
KGVL 162253Z AUTO 35011KT 10SM CLR 18/04 A3013 RMK AO2 SLP191 T01780039
KGVL 162153Z AUTO 34011G17KT 10SM CLR 21/05 A3010 RMK AO2 SLP181 T02060050
KGVL 162053Z AUTO 33010KT 10SM CLR 22/07 A3010 RMK AO2 SLP179 T02170072 55008
KGVL 161953Z AUTO 33011G17KT 10SM CLR 22/07 A3009 RMK AO2 SLP176 T02170072